Time;durP1;ratioP1;P1;durP2;ratioP2;P2;SDS_P1;SDS_P2;PMS_P1;PMS_P2;Temp;Humidity;BMP_temperature;BMP_pressure;BME280_temperature;BME280_humidity;BME280_pressure;Samples;Min_cycle;Max_cycle;Signal;HPM_P1;HPM_P2
2021/01/24 00:00:11;;;;;;;28.48;16.50;;;;;;;0.57;93.25;99574.22;4947325;29;20058;-79
2021/01/24 00:02:41;;;;;;;29.10;15.50;;;;;;;0.62;93.20;99579.84;4956897;28;20047;-79
2021/01/24 00:05:10;;;;;;;31.13;16.13;;;;;;;0.55;93.05;99561.44;4938216;28;20054;-78
2021/01/24 00:07:37;;;;;;;29.48;15.02;;;;;;;0.64;92.96;99585.75;4955037;28;20039;-79
2021/01/24 00:10:05;;;;;;;26.50;14.18;;;;;;;0.63;93.02;99571.19;4957229;29;20035;-80
2021/01/24 00:12:31;;;;;;;28.25;16.75;;;;;;;0.55;93.26;99573.50;4921219;29;20038;-79
2021/01/24 00:14:57;;;;;;;25.63;15.30;;;;;;;0.58;93.28;99584.44;4943296;29;20035;-78
2021/01/24 00:17:22;;;;;;;24.67;14.65;;;;;;;0.55;93.36;99576.09;4940606;29;20501;-78
2021/01/24 00:19:48;;;;;;;26.88;14.75;;;;;;;0.67;93.32;99575.19;4948703;29;20568;-77
2021/01/24 00:22:13;;;;;;;26.35;15.25;;;;;;;0.60;92.99;99555.09;4925876;28;20039;-75
2021/01/24 00:24:39;;;;;;;22.88;13.07;;;;;;;0.54;92.95;99577.00;4929412;29;20453;-77
2021/01/24 00:27:05;;;;;;;26.38;15.18;;;;;;;0.56;92.97;99573.38;4954210;28;20039;-76
2021/01/24 00:29:31;;;;;;;22.95;14.50;;;;;;;0.61;92.82;99585.97;4943844;29;20039;-76
2021/01/24 00:31:56;;;;;;;24.92;15.57;;;;;;;0.66;92.72;99577.88;4949022;29;20050;-76
2021/01/24 00:34:22;;;;;;;28.48;16.38;;;;;;;0.72;92.69;99585.19;4931482;29;20062;-76
2021/01/24 00:36:47;;;;;;;27.15;16.08;;;;;;;0.73;92.59;99587.63;4955037;28;20138;-76
2021/01/24 00:39:13;;;;;;;27.40;15.27;;;;;;;0.71;92.81;99594.69;4933333;29;20053;-76
2021/01/24 00:41:38;;;;;;;26.88;14.77;;;;;;;0.70;92.54;99584.50;4952818;29;20085;-77
2021/01/24 00:44:04;;;;;;;28.50;14.35;;;;;;;0.70;92.30;99582.72;4940887;29;20050;-75
2021/01/24 00:46:30;;;;;;;25.60;14.48;;;;;;;0.75;92.79;99593.53;4948469;29;20046;-78
2021/01/24 00:48:55;;;;;;;27.88;14.75;;;;;;;0.73;92.30;99602.31;4932524;29;20039;-76
2021/01/24 00:51:21;;;;;;;27.63;15.75;;;;;;;0.69;92.81;99598.31;4917353;29;20118;-76
2021/01/24 00:53:47;;;;;;;28.58;16.08;;;;;;;0.82;92.15;99588.75;4941488;28;20059;-77
2021/01/24 00:56:12;;;;;;;26.60;13.30;;;;;;;0.73;92.49;99586.81;4932915;28;20480;-76
2021/01/24 00:58:38;;;;;;;28.55;15.65;;;;;;;0.72;92.42;99595.53;4947586;28;20590;-75
2021/01/24 01:01:03;;;;;;;27.15;15.52;;;;;;;0.73;92.53;99595.38;4923889;29;20035;-75
2021/01/24 01:03:29;;;;;;;27.13;15.60;;;;;;;0.70;92.90;99585.31;4938689;29;20046;-76
2021/01/24 01:05:54;;;;;;;29.55;15.13;;;;;;;0.73;92.47;99590.22;4938554;29;20039;-76
2021/01/24 01:08:20;;;;;;;21.75;14.18;;;;;;;0.72;92.56;99585.19;4955155;29;20047;-77
2021/01/24 01:10:46;;;;;;;27.83;15.27;;;;;;;0.66;92.85;99581.31;4939075;29;20446;-77
2021/01/24 01:13:11;;;;;;;28.98;15.30;;;;;;;0.56;93.02;99572.56;4938946;28;20110;-76
2021/01/24 01:15:37;;;;;;;27.08;15.90;;;;;;;0.65;92.63;99576.25;4959840;28;20067;-78
2021/01/24 01:18:02;;;;;;;24.35;15.27;;;;;;;0.58;92.78;99575.84;4941671;29;20035;-78
2021/01/24 01:20:28;;;;;;;28.33;15.77;;;;;;;0.56;92.23;99573.38;4929947;29;20402;-76
2021/01/24 01:22:54;;;;;;;28.23;15.85;;;;;;;0.43;92.84;99567.47;4967279;28;20496;-76
2021/01/24 01:25:19;;;;;;;28.88;15.65;;;;;;;0.41;92.93;99571.09;4956532;28;20043;-77
2021/01/24 01:27:45;;;;;;;28.25;15.38;;;;;;;0.35;93.33;99574.94;4939622;29;20660;-76
2021/01/24 01:30:12;;;;;;;26.20;16.33;;;;;;;0.22;93.18;99569.00;4958760;28;20053;-77
2021/01/24 01:32:38;;;;;;;27.23;14.73;;;;;;;0.11;93.65;99564.59;4953629;28;20051;-77
2021/01/24 01:35:04;;;;;;;25.70;15.35;;;;;;;-0.01;93.87;99558.56;4952930;29;20039;-77
2021/01/24 01:37:30;;;;;;;28.48;15.13;;;;;;;-0.06;93.77;99586.41;4943959;29;20046;-75
2021/01/24 01:39:56;;;;;;;22.30;13.40;;;;;;;-0.17;94.00;99579.44;4940494;28;20046;-77
2021/01/24 01:42:21;;;;;;;23.45;14.93;;;;;;;-0.28;94.50;99579.38;4949749;29;20040;-76
2021/01/24 01:44:47;;;;;;;23.98;14.18;;;;;;;-0.34;94.66;99578.03;4945929;29;20066;-76
2021/01/24 01:47:21;;;;;;;22.63;13.73;;;;;;;-0.44;94.77;99577.81;4946129;28;20032;-76
2021/01/24 01:49:47;;;;;;;29.80;16.48;;;;;;;-0.51;94.96;99579.19;4951851;28;20039;-76
2021/01/24 01:52:12;;;;;;;28.05;16.15;;;;;;;-0.51;95.18;99570.59;4941059;29;20105;-75
2021/01/24 01:54:37;;;;;;;28.77;15.40;;;;;;;-0.47;95.41;99579.78;4920131;29;20057;-76
2021/01/24 01:57:03;;;;;;;31.92;17.15;;;;;;;-0.56;95.21;99581.25;4951628;28;20035;-76
2021/01/24 01:59:28;;;;;;;32.33;16.88;;;;;;;-0.62;95.26;99576.50;4955622;28;20070;-76
2021/01/24 02:02:36;;;;;;;26.77;16.48;;;;;;;-0.71;95.63;99575.38;4954745;28;20045;-77
2021/01/24 02:05:07;;;;;;;31.33;16.92;;;;;;;-0.76;96.02;99580.00;4888954;29;20070;-76
2021/01/24 02:07:44;;;;;;;22.27;13.75;;;;;;;-0.80;95.80;99578.56;4947029;28;20047;-75
2021/01/24 02:10:36;;;;;;;31.73;14.50;;;;;;;-0.83;95.59;99579.59;4928774;29;20050;-76
2021/01/24 02:13:25;;;;;;;28.40;15.68;;;;;;;-0.85;95.45;99578.03;4944242;28;20046;-77
2021/01/24 02:15:52;;;;;;;30.90;17.13;;;;;;;-0.76;96.11;99582.56;4963668;28;20450;-75
2021/01/24 02:18:20;;;;;;;28.60;16.33;;;;;;;-0.73;95.78;99578.97;4950675;29;20031;-76
2021/01/24 02:20:56;;;;;;;31.50;17.23;;;;;;;-0.68;96.12;99582.03;4921530;29;20047;-78
2021/01/24 02:23:24;;;;;;;34.38;17.60;;;;;;;-0.67;96.24;99591.44;4948007;29;20110;-79
2021/01/24 02:26:01;;;;;;;33.88;17.30;;;;;;;-0.62;96.21;99586.81;4925236;29;20067;-76
2021/01/24 02:29:06;;;;;;;32.45;19.00;;;;;;;-0.70;95.96;99581.34;4953787;28;20035;-75
2021/01/24 02:31:32;;;;;;;26.38;16.52;;;;;;;-0.74;95.95;99585.03;4961706;28;20031;-76
2021/01/24 02:33:59;;;;;;;35.40;17.50;;;;;;;-0.74;96.21;99585.84;4944962;29;20159;-76
2021/01/24 02:36:26;;;;;;;33.05;17.23;;;;;;;-0.72;95.95;99581.44;4948414;28;20031;-79
2021/01/24 02:38:53;;;;;;;29.10;17.38;;;;;;;-0.71;96.00;99592.56;4948376;29;20039;-78
2021/01/24 02:41:19;;;;;;;33.38;18.50;;;;;;;-0.81;95.81;99598.34;4943111;29;20036;-76
2021/01/24 02:43:46;;;;;;;27.80;17.30;;;;;;;-0.84;95.96;99589.97;4918989;29;20034;-75
2021/01/24 02:46:15;;;;;;;32.85;16.58;;;;;;;-0.90;95.95;99593.78;4940943;29;20485;-75
2021/01/24 02:48:43;;;;;;;32.63;16.20;;;;;;;-0.93;96.11;99588.84;4956542;28;20043;-75
2021/01/24 02:51:09;;;;;;;37.03;20.50;;;;;;;-0.97;96.48;99589.97;4942303;29;20094;-75
2021/01/24 02:53:35;;;;;;;27.33;16.13;;;;;;;-1.04;96.38;99583.56;4938394;29;20158;-76
2021/01/24 02:56:01;;;;;;;32.97;19.23;;;;;;;-0.96;96.54;99593.34;4953021;28;20031;-75
2021/01/24 02:58:29;;;;;;;42.38;18.13;;;;;;;-0.93;96.35;99590.59;4942873;28;20047;-76
2021/01/24 03:00:55;;;;;;;36.88;19.33;;;;;;;-1.03;96.28;99590.38;4959525;28;20135;-76
2021/01/24 03:03:21;;;;;;;34.25;19.63;;;;;;;-1.12;96.31;99591.78;4951321;28;20035;-77
2021/01/24 03:05:46;;;;;;;31.35;17.38;;;;;;;-1.18;96.38;99590.44;4953617;28;20044;-75
2021/01/24 03:08:13;;;;;;;32.83;18.40;;;;;;;-1.20;96.90;99591.47;4933131;28;20039;-76
2021/01/24 03:10:40;;;;;;;40.65;19.45;;;;;;;-1.24;97.00;99584.88;4951129;28;20036;-77
2021/01/24 03:13:21;;;;;;;36.05;19.13;;;;;;;-1.32;97.03;99580.22;4953305;28;20169;-79
2021/01/24 03:15:48;;;;;;;33.75;18.55;;;;;;;-1.31;97.31;99583.63;4952054;29;20114;-77
2021/01/24 03:18:20;;;;;;;32.38;19.63;;;;;;;-1.38;97.91;99583.19;4935640;29;20043;-76
2021/01/24 03:20:49;;;;;;;32.45;17.98;;;;;;;-1.38;97.31;99593.47;4950718;29;20039;-75
2021/01/24 03:23:15;;;;;;;29.63;16.65;;;;;;;-1.38;97.11;99591.72;4937039;29;20042;-77
2021/01/24 03:25:42;;;;;;;30.05;16.40;;;;;;;-1.41;97.25;99591.94;4936682;29;20070;-77
2021/01/24 03:28:08;;;;;;;30.98;16.60;;;;;;;-1.36;96.88;99594.19;4956130;28;20441;-78
2021/01/24 03:30:34;;;;;;;32.00;17.23;;;;;;;-1.34;97.11;99594.09;4917285;29;20055;-77
2021/01/24 03:33:00;;;;;;;35.28;18.30;;;;;;;-1.26;97.07;99595.28;4948854;28;20066;-78
2021/01/24 03:35:26;;;;;;;31.15;17.35;;;;;;;-1.22;96.62;99601.03;4937969;29;20401;-75
2021/01/24 03:37:51;;;;;;;30.90;16.75;;;;;;;-1.23;96.52;99592.47;4928825;29;20081;-75
2021/01/24 03:40:17;;;;;;;35.22;17.40;;;;;;;-1.30;96.12;99593.81;4929085;29;20042;-78
2021/01/24 03:42:42;;;;;;;34.28;16.45;;;;;;;-1.31;96.26;99602.47;4950815;29;20449;-76
2021/01/24 03:45:09;;;;;;;33.33;18.50;;;;;;;-1.33;96.48;99604.31;4948962;29;20036;-76
2021/01/24 03:47:34;;;;;;;38.72;19.30;;;;;;;-1.40;97.18;99601.28;4943865;29;20123;-77
2021/01/24 03:50:00;;;;;;;32.08;17.17;;;;;;;-1.43;96.82;99595.50;4942545;28;20078;-76
2021/01/24 03:52:25;;;;;;;43.58;21.00;;;;;;;-1.53;97.15;99591.88;4930195;29;20482;-79
2021/01/24 03:54:51;;;;;;;34.13;17.67;;;;;;;-1.50;97.28;99596.84;4950405;28;20066;-77
2021/01/24 03:57:17;;;;;;;38.90;19.88;;;;;;;-1.35;97.57;99597.63;4927330;29;20393;-77
2021/01/24 03:59:42;;;;;;;46.90;22.15;;;;;;;-1.23;97.38;99600.19;4926806;28;20046;-77
2021/01/24 04:02:08;;;;;;;49.10;23.45;;;;;;;-1.16;97.65;99590.34;4941505;29;20098;-76
2021/01/24 04:04:33;;;;;;;51.47;23.83;;;;;;;-1.08;97.47;99593.22;4941779;29;20052;-77
2021/01/24 04:06:58;;;;;;;51.50;24.05;;;;;;;-0.97;97.59;99602.84;4951790;29;20070;-76
2021/01/24 04:09:24;;;;;;;44.53;22.42;;;;;;;-0.99;97.11;99600.34;4924259;29;20039;-76
2021/01/24 04:11:50;;;;;;;45.88;23.13;;;;;;;-0.93;97.52;99593.97;4948654;28;20039;-78
2021/01/24 04:14:15;;;;;;;47.75;23.65;;;;;;;-0.87;97.38;99590.19;4927369;29;20509;-76
2021/01/24 04:16:41;;;;;;;46.60;22.95;;;;;;;-0.81;97.35;99592.34;4948216;29;20035;-76
2021/01/24 04:19:06;;;;;;;43.10;23.08;;;;;;;-0.85;97.35;99584.03;4928284;29;20452;-77
2021/01/24 04:21:32;;;;;;;46.25;22.92;;;;;;;-0.81;97.17;99587.19;4931204;29;20098;-77
2021/01/24 04:23:57;;;;;;;45.35;23.15;;;;;;;-0.72;97.14;99588.34;4961699;28;20090;-75
2021/01/24 04:26:23;;;;;;;46.72;21.73;;;;;;;-0.71;97.18;99585.66;4956872;28;20433;-77
2021/01/24 04:28:48;;;;;;;39.05;20.00;;;;;;;-0.72;96.61;99585.75;4956719;28;20031;-79
2021/01/24 04:31:15;;;;;;;35.80;19.60;;;;;;;-0.83;97.13;99589.03;4937042;29;20034;-76
2021/01/24 04:33:40;;;;;;;40.50;20.23;;;;;;;-0.88;96.94;99581.63;4927386;29;20123;-76
2021/01/24 04:36:07;;;;;;;36.33;20.27;;;;;;;-0.92;96.86;99580.19;4941646;29;20035;-75
2021/01/24 04:38:33;;;;;;;40.13;20.75;;;;;;;-0.94;97.06;99578.63;4954534;29;20046;-75
2021/01/24 04:41:00;;;;;;;40.85;22.10;;;;;;;-0.99;97.17;99581.53;4955069;28;20051;-76
2021/01/24 04:43:25;;;;;;;35.35;19.60;;;;;;;-1.01;97.48;99575.66;4967017;28;20034;-76
2021/01/24 04:45:54;;;;;;;44.42;22.20;;;;;;;-1.03;97.34;99575.75;4935437;29;20035;-75
2021/01/24 04:48:20;;;;;;;37.70;20.13;;;;;;;-1.04;97.21;99581.81;4942265;29;20031;-77
2021/01/24 04:50:45;;;;;;;34.78;20.48;;;;;;;-1.05;97.32;99577.59;4947863;28;20045;-76
2021/01/24 04:53:11;;;;;;;36.05;19.48;;;;;;;-1.05;97.58;99576.78;4957866;28;20110;-76
2021/01/24 04:55:37;;;;;;;31.35;16.08;;;;;;;-1.11;97.36;99569.44;4951787;28;20058;-76
2021/01/24 04:58:03;;;;;;;33.70;17.08;;;;;;;-1.02;97.36;99574.84;4953436;28;20043;-76
2021/01/24 05:00:29;;;;;;;32.83;18.40;;;;;;;-1.03;97.63;99567.22;4938784;29;20050;-77
2021/01/24 05:02:54;;;;;;;35.55;18.77;;;;;;;-1.02;97.21;99568.84;4952825;28;20035;-77
2021/01/24 05:05:20;;;;;;;35.72;19.30;;;;;;;-0.92;97.77;99564.75;4936958;29;20047;-76
2021/01/24 05:07:56;;;;;;;43.08;23.00;;;;;;;-0.92;97.33;99567.31;4940588;28;20035;-76
2021/01/24 05:10:27;;;;;;;38.92;20.80;;;;;;;-0.95;97.35;99562.38;4944729;29;20489;-76
2021/01/24 05:12:53;;;;;;;42.50;21.75;;;;;;;-1.02;97.44;99558.56;4952754;28;20024;-78
2021/01/24 05:15:20;;;;;;;42.00;22.80;;;;;;;-1.08;97.45;99561.53;4932434;29;20035;-74
2021/01/24 05:18:04;;;;;;;42.38;20.38;;;;;;;-1.14;97.65;99560.19;4937655;29;20485;-77
2021/01/24 05:20:32;;;;;;;39.22;20.17;;;;;;;-1.13;97.44;99561.00;4944287;29;20490;-75
2021/01/24 05:23:00;;;;;;;33.88;19.08;;;;;;;-1.07;97.35;99569.16;4930256;29;20096;-77
2021/01/24 05:25:31;;;;;;;37.22;19.10;;;;;;;-1.07;97.37;99565.78;4950418;29;20039;-77
2021/01/24 05:27:58;;;;;;;38.20;18.90;;;;;;;-1.18;97.66;99559.56;4927854;29;20032;-76
2021/01/24 05:30:31;;;;;;;34.25;18.83;;;;;;;-1.17;97.62;99568.09;4949897;29;20061;-75
2021/01/24 05:33:00;;;;;;;41.28;22.20;;;;;;;-1.24;97.79;99559.16;4947527;28;20035;-79
2021/01/24 05:35:27;;;;;;;38.78;21.23;;;;;;;-1.29;98.00;99561.19;4941289;29;20051;-76
2021/01/24 05:37:53;;;;;;;34.88;18.75;;;;;;;-1.28;98.00;99555.97;4950282;29;20055;-77
2021/01/24 05:40:19;;;;;;;37.22;20.17;;;;;;;-1.23;98.45;99559.03;4931338;29;20039;-77
2021/01/24 05:42:46;;;;;;;40.75;18.23;;;;;;;-1.15;98.25;99557.72;4935331;29;20051;-76
2021/01/24 05:45:17;;;;;;;38.70;20.65;;;;;;;-1.18;98.08;99563.91;4925231;29;20401;-75
2021/01/24 05:47:44;;;;;;;38.42;21.35;;;;;;;-1.18;98.19;99556.19;4952055;29;20039;-77
2021/01/24 05:50:15;;;;;;;39.20;20.95;;;;;;;-1.21;98.24;99561.50;4937471;28;20085;-77
2021/01/24 05:52:47;;;;;;;42.97;18.75;;;;;;;-1.17;97.93;99565.53;4956315;28;20063;-77
2021/01/24 05:55:29;;;;;;;36.67;18.88;;;;;;;-1.08;98.40;99566.69;4945167;29;20046;-77
2021/01/24 05:57:54;;;;;;;36.75;19.27;;;;;;;-1.04;97.98;99570.69;4934352;29;20525;-77
2021/01/24 06:00:21;;;;;;;41.35;22.42;;;;;;;-1.05;98.13;99566.50;4931932;28;20031;-77
2021/01/24 06:02:47;;;;;;;39.88;21.48;;;;;;;-1.05;97.95;99574.22;4939437;29;20039;-75
2021/01/24 06:05:13;;;;;;;33.30;18.50;;;;;;;-1.08;98.05;99577.78;4953248;28;20027;-75
2021/01/24 06:07:39;;;;;;;30.48;15.77;;;;;;;-1.05;98.04;99582.75;4935135;29;20032;-76
2021/01/24 06:10:04;;;;;;;31.65;16.48;;;;;;;-1.01;97.87;99588.53;4953834;29;20114;-75
2021/01/24 06:12:30;;;;;;;36.20;18.35;;;;;;;-0.99;97.86;99590.06;4940741;29;20047;-76
2021/01/24 06:15:03;;;;;;;33.13;17.42;;;;;;;-0.94;97.77;99592.34;4953750;28;20031;-76
2021/01/24 06:17:37;;;;;;;35.38;17.27;;;;;;;-0.92;97.88;99590.50;4928339;29;20031;-75
2021/01/24 06:20:05;;;;;;;36.38;18.92;;;;;;;-0.96;97.61;99590.78;4943352;29;20118;-76
2021/01/24 06:22:38;;;;;;;31.10;16.38;;;;;;;-0.98;97.69;99588.31;4954247;29;20456;-75
2021/01/24 06:25:11;;;;;;;33.50;17.33;;;;;;;-0.99;97.69;99604.69;4949379;29;20147;-76
2021/01/24 06:27:43;;;;;;;29.73;15.27;;;;;;;-0.94;97.87;99602.66;4944798;29;20512;-77
2021/01/24 06:30:11;;;;;;;34.53;16.80;;;;;;;-0.90;97.69;99609.25;4927746;29;20047;-75
2021/01/24 06:32:37;;;;;;;37.10;19.85;;;;;;;-0.87;97.78;99605.63;4944104;29;20082;-77
2021/01/24 06:35:42;;;;;;;31.77;17.33;;;;;;;-0.86;97.31;99615.00;4951155;29;20036;-77
2021/01/24 06:38:08;;;;;;;29.10;15.68;;;;;;;-0.84;97.52;99616.56;4920916;28;20052;-76
2021/01/24 06:40:42;;;;;;;32.20;16.73;;;;;;;-0.82;97.95;99619.03;4935340;29;20046;-75
2021/01/24 06:43:08;;;;;;;30.10;15.88;;;;;;;-0.83;97.46;99620.78;4935304;29;20035;-76
2021/01/24 06:45:33;;;;;;;35.10;18.98;;;;;;;-0.81;97.71;99631.81;4931198;28;20118;-77
2021/01/24 06:48:00;;;;;;;27.67;16.67;;;;;;;-0.83;97.61;99630.25;4934279;29;20074;-77
2021/01/24 06:50:40;;;;;;;33.55;16.58;;;;;;;-0.83;97.53;99635.38;4937177;28;20097;-76
2021/01/24 06:53:18;;;;;;;36.88;20.85;;;;;;;-0.91;97.54;99630.75;4936371;29;20023;-75
2021/01/24 06:56:06;;;;;;;42.15;20.90;;;;;;;-0.94;97.86;99633.53;4937983;28;20492;-76
2021/01/24 06:58:46;;;;;;;30.00;16.95;;;;;;;-0.93;97.50;99634.34;4964513;28;20063;-77
2021/01/24 07:01:43;;;;;;;39.17;20.10;;;;;;;-0.93;97.57;99640.31;4937605;29;20486;-77
2021/01/24 07:04:20;;;;;;;36.17;19.10;;;;;;;-0.94;97.33;99633.53;4950451;29;20179;-75
2021/01/24 07:06:50;;;;;;;43.28;20.77;;;;;;;-0.98;97.54;99635.47;4921495;29;20522;-76
2021/01/24 07:09:25;;;;;;;34.83;18.98;;;;;;;-1.00;97.79;99646.78;4934393;28;20034;-75
2021/01/24 07:11:58;;;;;;;42.47;20.85;;;;;;;-1.04;97.66;99638.44;4936903;28;20574;-79
2021/01/24 07:14:36;;;;;;;40.38;21.13;;;;;;;-0.98;97.56;99653.50;4934045;29;20046;-75
2021/01/24 07:17:11;;;;;;;46.80;20.58;;;;;;;-0.98;97.89;99653.50;4946818;28;20047;-77
2021/01/24 07:19:42;;;;;;;29.60;16.50;;;;;;;-0.93;97.80;99660.91;4934838;29;20036;-76
2021/01/24 07:22:09;;;;;;;28.13;16.92;;;;;;;-0.88;97.59;99661.44;4949698;29;20449;-74
2021/01/24 07:24:36;;;;;;;29.83;15.27;;;;;;;-0.88;97.56;99661.44;4925005;29;20529;-77
2021/01/24 07:27:06;;;;;;;35.33;18.75;;;;;;;-0.91;97.78;99659.06;4955290;28;20070;-77
2021/01/24 07:29:31;;;;;;;39.80;19.92;;;;;;;-0.88;97.61;99673.50;4937511;29;20631;-78
2021/01/24 07:31:57;;;;;;;29.63;16.58;;;;;;;-0.89;97.53;99675.22;4932546;29;20024;-78
2021/01/24 07:34:24;;;;;;;36.28;19.25;;;;;;;-0.87;97.61;99678.53;4934775;29;20043;-77
2021/01/24 07:36:51;;;;;;;29.15;15.25;;;;;;;-0.86;97.63;99681.94;4942213;29;20394;-76
2021/01/24 07:39:17;;;;;;;32.10;18.50;;;;;;;-0.85;97.65;99684.44;4951469;29;20046;-77
2021/01/24 07:41:44;;;;;;;36.97;18.85;;;;;;;-0.79;97.54;99693.50;4929263;29;20039;-77
2021/01/24 07:44:10;;;;;;;31.98;17.50;;;;;;;-0.80;97.06;99695.25;4921481;29;20105;-78
2021/01/24 07:46:36;;;;;;;30.83;17.40;;;;;;;-0.76;97.06;99695.06;4926927;29;20031;-79
2021/01/24 07:49:01;;;;;;;29.88;18.08;;;;;;;-0.78;97.16;99697.72;4925488;29;20410;-79
2021/01/24 07:51:27;;;;;;;31.10;17.20;;;;;;;-0.76;97.45;99695.88;4934432;29;20107;-78
2021/01/24 07:53:53;;;;;;;35.72;19.45;;;;;;;-0.76;97.20;99701.03;4945253;29;20548;-78
2021/01/24 07:56:19;;;;;;;32.38;18.85;;;;;;;-0.76;97.46;99702.78;4931882;28;20477;-75
2021/01/24 07:58:45;;;;;;;33.67;18.90;;;;;;;-0.80;97.29;99692.66;4949873;28;20065;-77
2021/01/24 08:01:13;;;;;;;32.47;16.70;;;;;;;-0.81;97.46;99703.91;4952379;29;20046;-80
2021/01/24 08:03:38;;;;;;;36.97;18.17;;;;;;;-0.77;97.32;99714.84;4935856;29;20031;-78
2021/01/24 08:06:14;;;;;;;32.50;17.58;;;;;;;-0.74;97.58;99713.81;4930970;29;20043;-77
2021/01/24 08:08:45;;;;;;;26.70;13.82;;;;;;;-0.76;97.34;99715.66;4933058;29;20410;-76
2021/01/24 08:11:12;;;;;;;28.98;16.60;;;;;;;-0.70;97.36;99716.06;4947070;28;20089;-77
2021/01/24 08:13:41;;;;;;;27.65;16.08;;;;;;;-0.68;97.38;99719.38;4952454;28;20031;-75
2021/01/24 08:16:10;;;;;;;27.55;15.20;;;;;;;-0.64;97.06;99720.84;4951903;29;20394;-76
2021/01/24 08:18:40;;;;;;;28.92;16.65;;;;;;;-0.63;96.95;99725.03;4949555;29;20045;-76
2021/01/24 08:21:06;;;;;;;30.60;17.15;;;;;;;-0.59;96.95;99729.06;4943130;29;20548;-78
2021/01/24 08:23:31;;;;;;;29.42;17.23;;;;;;;-0.59;96.97;99723.91;4948139;29;20051;-76
2021/01/24 08:25:57;;;;;;;33.20;17.00;;;;;;;-0.60;96.97;99730.00;4946491;28;20034;-77
2021/01/24 08:28:25;;;;;;;27.65;16.13;;;;;;;-0.60;96.74;99735.16;4932976;29;20039;-77
2021/01/24 08:30:51;;;;;;;30.25;16.40;;;;;;;-0.57;97.58;99736.69;4946079;29;20481;-77
2021/01/24 08:33:19;;;;;;;26.65;15.48;;;;;;;-0.54;97.52;99736.50;4930468;29;20098;-78
2021/01/24 08:35:45;;;;;;;30.58;17.50;;;;;;;-0.48;97.37;99743.84;4937318;29;20036;-76
2021/01/24 08:38:13;;;;;;;29.90;17.30;;;;;;;-0.47;96.88;99744.66;4940747;29;20054;-77
2021/01/24 08:40:39;;;;;;;30.52;17.42;;;;;;;-0.38;97.27;99745.81;4938775;29;20415;-76
2021/01/24 08:43:06;;;;;;;36.10;19.45;;;;;;;-0.30;96.55;99752.13;4942538;29;20553;-75
2021/01/24 08:45:32;;;;;;;37.03;21.35;;;;;;;-0.28;96.30;99750.25;4900870;29;20303;-79
2021/01/24 08:48:00;;;;;;;38.78;19.35;;;;;;;-0.25;96.37;99752.63;4917888;29;20036;-78
2021/01/24 08:50:33;;;;;;;31.15;18.63;;;;;;;-0.23;96.39;99755.94;4941233;29;20027;-81
2021/01/24 08:53:02;;;;;;;34.67;19.38;;;;;;;-0.27;96.15;99754.47;4957667;28;20461;-76
2021/01/24 08:55:28;;;;;;;30.85;17.67;;;;;;;-0.25;96.10;99765.50;4943457;29;20031;-78
2021/01/24 08:57:54;;;;;;;34.00;19.95;;;;;;;-0.18;95.95;99768.50;4932426;29;20034;-74
2021/01/24 09:00:20;;;;;;;36.42;20.98;;;;;;;-0.18;95.80;99773.66;4942141;28;20035;-74
2021/01/24 09:02:46;;;;;;;37.28;20.55;;;;;;;-0.15;95.41;99773.47;4910632;29;20040;-78
2021/01/24 09:05:14;;;;;;;35.83;20.30;;;;;;;-0.14;95.59;99771.72;4907983;28;20503;-77
2021/01/24 09:07:47;;;;;;;38.33;21.48;;;;;;;-0.14;95.75;99776.88;4936853;28;20082;-77
2021/01/24 09:10:24;;;;;;;42.83;23.10;;;;;;;-0.17;95.97;99777.06;4922486;28;20027;-75
2021/01/24 09:13:03;;;;;;;43.80;23.42;;;;;;;-0.12;96.10;99781.00;4932552;28;20171;-76
2021/01/24 09:15:31;;;;;;;41.20;22.73;;;;;;;-0.11;95.94;99769.75;4937496;29;20121;-76
2021/01/24 09:17:59;;;;;;;40.78;22.25;;;;;;;-0.11;95.75;99785.22;4913582;28;20514;-77
2021/01/24 09:20:26;;;;;;;46.50;22.55;;;;;;;-0.06;95.94;99777.19;4968483;28;20115;-77
2021/01/24 09:22:52;;;;;;;48.67;25.92;;;;;;;-0.12;96.56;99783.56;4934544;29;20051;-76
2021/01/24 09:25:17;;;;;;;44.83;24.95;;;;;;;-0.08;96.64;99786.78;4952518;29;20218;-76
2021/01/24 09:27:43;;;;;;;42.58;21.13;;;;;;;-0.03;96.80;99788.13;4950858;29;20043;-76
2021/01/24 09:30:14;;;;;;;35.63;20.52;;;;;;;0.02;96.27;99794.72;4955453;28;20037;-75
2021/01/24 09:32:40;;;;;;;39.88;21.65;;;;;;;0.06;95.57;99783.25;4939815;28;20034;-78
2021/01/24 09:35:06;;;;;;;39.30;22.27;;;;;;;0.14;95.42;99792.16;4945578;29;20035;-78
2021/01/24 09:37:32;;;;;;;37.50;20.85;;;;;;;0.16;94.97;99792.06;4916699;29;20043;-77
2021/01/24 09:39:58;;;;;;;39.05;20.58;;;;;;;0.19;95.54;99799.59;4929439;29;20522;-76
2021/01/24 09:42:24;;;;;;;41.45;21.88;;;;;;;0.18;95.07;99796.16;4937217;29;20545;-76
2021/01/24 09:44:49;;;;;;;32.10;19.67;;;;;;;0.17;95.99;99788.53;4932025;29;20034;-75
2021/01/24 09:47:15;;;;;;;36.67;20.73;;;;;;;0.33;95.29;99808.97;4949973;29;20039;-78
2021/01/24 09:49:41;;;;;;;37.45;20.08;;;;;;;0.30;95.49;99809.16;4929367;29;20035;-77
2021/01/24 09:52:07;;;;;;;38.35;22.20;;;;;;;0.40;95.15;99797.31;4951523;28;20418;-75
2021/01/24 09:54:32;;;;;;;34.03;21.02;;;;;;;0.46;94.86;99809.78;4942117;29;20059;-79
2021/01/24 09:56:58;;;;;;;36.53;21.88;;;;;;;0.51;94.92;99812.03;4923551;29;20035;-76
2021/01/24 09:59:24;;;;;;;37.63;20.83;;;;;;;0.50;94.62;99808.63;4955090;29;20050;-76
2021/01/24 10:01:49;;;;;;;35.38;19.92;;;;;;;0.55;94.45;99816.09;4954997;28;20054;-77
2021/01/24 10:04:14;;;;;;;38.35;20.38;;;;;;;0.54;94.35;99809.25;4945426;29;20043;-77
2021/01/24 10:06:40;;;;;;;41.60;22.98;;;;;;;0.57;94.72;99807.28;4968235;28;20031;-75
2021/01/24 10:09:06;;;;;;;36.28;21.23;;;;;;;0.60;93.91;99800.28;4943997;29;20046;-77
2021/01/24 10:11:32;;;;;;;33.95;20.48;;;;;;;0.64;94.39;99799.13;4932318;29;20043;-76
2021/01/24 10:13:58;;;;;;;36.35;21.33;;;;;;;0.76;93.90;99808.63;4952213;28;20485;-81
2021/01/24 10:16:24;;;;;;;36.47;21.05;;;;;;;0.79;94.07;99816.13;4936450;29;20059;-76
2021/01/24 10:18:49;;;;;;;45.08;24.58;;;;;;;0.80;95.90;99804.06;4953108;29;20039;-76
2021/01/24 10:21:15;;;;;;;50.40;25.88;;;;;;;0.84;95.61;99816.63;4944074;29;20454;-76
2021/01/24 10:23:41;;;;;;;44.80;25.58;;;;;;;0.85;95.81;99823.47;4936835;28;20063;-77
2021/01/24 10:26:07;;;;;;;45.30;23.88;;;;;;;0.87;95.78;99821.59;4932046;29;20086;-75
2021/01/24 10:28:33;;;;;;;43.67;22.88;;;;;;;0.92;96.04;99816.94;4945588;28;20032;-79
2021/01/24 10:30:58;;;;;;;42.25;22.45;;;;;;;0.86;96.45;99801.88;4911932;29;20027;-78
2021/01/24 10:33:24;;;;;;;42.80;23.58;;;;;;;0.91;96.09;99811.88;4937774;29;20382;-79
2021/01/24 10:35:50;;;;;;;44.50;22.45;;;;;;;0.89;94.56;99811.16;4919226;29;20035;-77
2021/01/24 10:38:16;;;;;;;37.20;22.25;;;;;;;0.95;94.38;99811.56;4921358;29;20038;-78
2021/01/24 10:40:42;;;;;;;35.25;21.17;;;;;;;0.97;94.79;99816.63;4934803;29;20034;-80
2021/01/24 10:43:09;;;;;;;45.60;22.90;;;;;;;0.96;95.12;99810.63;4951312;29;20031;-78
2021/01/24 10:45:36;;;;;;;37.78;21.20;;;;;;;1.11;95.10;99813.03;4919522;29;20050;-79
2021/01/24 10:48:03;;;;;;;33.13;19.60;;;;;;;1.16;93.83;99821.31;4947866;29;20086;-79
2021/01/24 10:50:29;;;;;;;36.70;22.00;;;;;;;1.04;94.24;99804.09;4918099;29;20039;-78
2021/01/24 10:52:54;;;;;;;32.22;19.52;;;;;;;1.16;93.40;99827.28;4938122;29;20019;-76
2021/01/24 10:55:20;;;;;;;34.85;20.30;;;;;;;1.17;93.54;99815.22;4936992;29;20039;-79
2021/01/24 10:57:46;;;;;;;37.78;18.85;;;;;;;1.17;92.16;99816.03;4951993;28;20047;-78
2021/01/24 11:00:12;;;;;;;35.92;20.58;;;;;;;1.20;91.89;99822.72;4966841;28;20031;-80
2021/01/24 11:02:38;;;;;;;29.85;18.02;;;;;;;1.19;92.45;99812.50;4932949;29;20152;-78
2021/01/24 11:05:05;;;;;;;36.70;21.60;;;;;;;1.17;93.51;99821.19;4951014;29;20052;-78
2021/01/24 11:07:30;;;;;;;34.80;19.13;;;;;;;1.32;92.51;99836.56;4922563;29;20054;-79
2021/01/24 11:09:56;;;;;;;27.85;17.85;;;;;;;1.28;92.02;99819.59;4939244;28;20047;-78
2021/01/24 11:12:25;;;;;;;31.50;18.77;;;;;;;1.29;92.59;99810.94;4931296;29;20039;-76
2021/01/24 11:14:51;;;;;;;32.28;18.88;;;;;;;1.34;92.60;99824.34;4950427;28;20359;-80
2021/01/24 11:17:17;;;;;;;32.90;18.67;;;;;;;1.36;91.73;99815.53;4936940;29;20063;-76
2021/01/24 11:19:50;;;;;;;30.05;17.55;;;;;;;1.46;90.17;99823.44;4945227;28;20035;-76
2021/01/24 11:22:16;;;;;;;27.90;18.23;;;;;;;1.42;90.26;99823.81;4944161;29;20620;-79